createdAt,value
2018-04-11T00:02:05.274Z,16.28
2018-04-11T00:04:33.626Z,16.35
2018-04-11T00:07:01.951Z,16.36
2018-04-11T00:09:30.327Z,16.31
2018-04-11T00:11:58.653Z,16.36
2018-04-11T00:14:27.027Z,16.33
2018-04-11T00:16:56.125Z,16.27
2018-04-11T00:19:25.240Z,16.23
2018-04-11T00:21:53.962Z,16.11
2018-04-11T00:24:22.317Z,15.97
2018-04-11T00:26:51.076Z,15.76
2018-04-11T00:29:19.432Z,15.61
2018-04-11T00:31:48.544Z,15.73
2018-04-11T00:34:18.438Z,15.77
2018-04-11T00:36:46.782Z,15.73
2018-04-11T00:39:15.100Z,15.82
2018-04-11T00:41:43.487Z,15.74
2018-04-11T00:44:12.617Z,15.71
2018-04-11T00:46:40.969Z,15.71
2018-04-11T00:49:09.341Z,15.72
2018-04-11T00:51:38.098Z,15.69
2018-04-11T00:54:06.437Z,15.49
2018-04-11T00:56:34.811Z,15.52
2018-04-11T00:59:03.536Z,15.62
2018-04-11T01:01:32.282Z,15.65
2018-04-11T01:04:00.607Z,15.68
2018-04-11T01:06:28.978Z,15.69
2018-04-11T01:08:57.321Z,15.63
2018-04-11T01:11:26.053Z,15.64
2018-04-11T01:13:55.174Z,15.64
2018-04-11T01:16:24.260Z,15.56
2018-04-11T01:18:53.389Z,15.53
2018-04-11T01:21:22.161Z,15.58
2018-04-11T01:23:50.494Z,15.56
2018-04-11T01:26:19.249Z,15.59
2018-04-11T01:28:47.612Z,15.56
2018-04-11T01:31:15.929Z,15.52
2018-04-11T01:33:44.258Z,15.54
2018-04-11T01:36:12.627Z,15.50
2018-04-11T01:38:40.941Z,15.42
2018-04-11T01:41:09.301Z,15.37
2018-04-11T01:43:37.684Z,15.45
2018-04-11T01:46:06.045Z,15.40
2018-04-11T01:48:34.382Z,15.35
2018-04-11T01:51:02.751Z,15.34
2018-04-11T01:53:31.099Z,15.38
2018-04-11T01:55:59.422Z,15.34
2018-04-11T01:58:28.170Z,15.28
2018-04-11T02:00:56.534Z,15.21
2018-04-11T02:03:24.902Z,15.15
2018-04-11T02:05:53.286Z,15.08
2018-04-11T02:08:21.611Z,15.00
2018-04-11T02:10:49.978Z,14.98
2018-04-11T02:13:18.310Z,14.93
2018-04-11T02:15:46.686Z,14.87
2018-04-11T02:18:15.065Z,14.84
2018-04-11T02:20:44.166Z,14.80
2018-04-11T02:23:12.529Z,14.78
2018-04-11T02:25:40.860Z,14.75
2018-04-11T02:28:09.201Z,14.72
2018-04-11T02:30:37.507Z,14.69
2018-04-11T02:33:05.897Z,14.63
2018-04-11T02:35:34.213Z,14.63
2018-04-11T02:38:02.562Z,14.62
2018-04-11T02:40:30.938Z,14.59
2018-04-11T02:42:59.614Z,14.55
2018-04-11T02:45:28.027Z,14.56
2018-04-11T02:47:57.902Z,14.48
2018-04-11T02:50:26.222Z,14.44
2018-04-11T02:52:54.541Z,14.37
2018-04-11T02:55:22.908Z,14.31
2018-04-11T02:57:51.217Z,14.30
2018-04-11T03:00:19.557Z,14.24
2018-04-11T03:02:47.912Z,14.20
2018-04-11T03:05:16.233Z,14.15
2018-04-11T03:07:44.599Z,14.12
2018-04-11T03:10:12.933Z,14.10
2018-04-11T03:12:42.048Z,14.05
2018-04-11T03:15:10.399Z,14.02
2018-04-11T03:17:38.732Z,13.99
2018-04-11T03:20:07.517Z,13.94
2018-04-11T03:22:35.938Z,13.90
2018-04-11T03:25:05.200Z,13.85
2018-04-11T03:27:33.554Z,13.77
2018-04-11T03:30:01.926Z,13.62
2018-04-11T03:32:30.252Z,13.50
2018-04-11T03:34:58.555Z,13.44
2018-04-11T03:37:27.667Z,13.37
2018-04-11T03:39:56.005Z,13.19
2018-04-11T03:42:24.344Z,13.17
2018-04-11T03:44:52.675Z,13.08
2018-04-11T03:47:21.784Z,13.07
2018-04-11T03:49:50.154Z,12.89
2018-04-11T03:52:19.253Z,12.82
2018-04-11T03:54:47.611Z,12.90
2018-04-11T03:57:15.936Z,12.75
2018-04-11T03:59:44.327Z,12.80
2018-04-11T04:02:12.660Z,12.69
2018-04-11T04:04:41.791Z,12.55
2018-04-11T04:07:10.153Z,12.46
2018-04-11T04:09:38.487Z,12.38
2018-04-11T04:12:06.844Z,12.58
2018-04-11T04:14:52.751Z,12.57
2018-04-11T04:17:38.770Z,12.50
2018-04-11T04:20:40.183Z,12.42
2018-04-11T04:23:08.666Z,12.47
2018-04-11T04:25:37.897Z,12.46
2018-04-11T04:28:07.025Z,12.52
2018-04-11T04:30:35.782Z,12.53
2018-04-11T04:33:04.894Z,12.55
2018-04-11T04:35:34.034Z,12.53
2018-04-11T04:38:02.381Z,12.54
2018-04-11T04:40:31.539Z,12.51
2018-04-11T04:43:00.679Z,12.54
2018-04-11T04:45:29.058Z,12.47
2018-04-11T04:47:57.436Z,12.40
2018-04-11T04:50:25.847Z,12.47
2018-04-11T04:52:54.212Z,12.43
2018-04-11T04:55:22.554Z,12.45
2018-04-11T04:57:50.917Z,12.51
2018-04-11T05:00:20.039Z,12.51
2018-04-11T05:02:48.463Z,12.52
2018-04-11T05:05:16.801Z,12.50
2018-04-11T05:07:45.169Z,12.46
2018-04-11T05:10:13.531Z,12.44
2018-04-11T05:12:47.299Z,12.42
2018-04-11T05:15:15.691Z,12.37
2018-04-11T05:17:44.821Z,12.44
2018-04-11T05:20:13.194Z,12.49
2018-04-11T05:22:42.409Z,12.52
2018-04-11T05:25:10.784Z,12.56
2018-04-11T05:27:39.119Z,12.65
2018-04-11T05:30:08.209Z,12.75
2018-04-11T05:32:36.578Z,12.87
2018-04-11T05:35:05.875Z,13.08
2018-04-11T05:37:34.261Z,13.30
2018-04-11T05:40:03.037Z,13.52
2018-04-11T05:42:31.412Z,13.93
2018-04-11T05:45:00.180Z,13.95
2018-04-11T05:47:29.308Z,14.07
2018-04-11T05:49:57.696Z,13.92
2018-04-11T05:52:26.036Z,14.02
2018-04-11T05:54:54.394Z,13.85
2018-04-11T05:57:22.762Z,13.82
2018-04-11T05:59:51.118Z,13.66
2018-04-11T06:02:20.256Z,13.56
2018-04-11T06:04:49.854Z,13.76
2018-04-11T06:07:18.245Z,14.19
2018-04-11T06:09:46.632Z,14.28
2018-04-11T06:12:15.010Z,14.31
2018-04-11T06:14:43.355Z,14.41
2018-04-11T06:17:12.095Z,14.78
2018-04-11T06:19:40.455Z,14.52
2018-04-11T06:22:09.572Z,14.31
2018-04-11T06:24:37.959Z,14.31
2018-04-11T06:27:07.673Z,14.37
2018-04-11T06:29:36.842Z,14.33
2018-04-11T06:32:05.610Z,14.33
2018-04-11T06:34:33.963Z,14.39
2018-04-11T06:37:02.303Z,14.48
2018-04-11T06:39:31.088Z,14.57
2018-04-11T06:41:59.477Z,14.52
2018-04-11T06:44:28.599Z,14.39
2018-04-11T06:46:57.010Z,14.48
2018-04-11T06:49:25.338Z,14.57
2018-04-11T06:51:54.491Z,14.64
2018-04-11T06:54:22.890Z,14.66
2018-04-11T06:56:51.326Z,14.80
2018-04-11T06:59:19.729Z,14.84
2018-04-11T07:01:48.131Z,14.93
2018-04-11T07:04:16.503Z,14.90
2018-04-11T07:06:44.850Z,14.90
2018-04-11T07:09:13.250Z,14.99
2018-04-11T07:11:41.598Z,15.09
2018-04-11T07:14:09.994Z,15.20
2018-04-11T07:16:38.327Z,15.26
2018-04-11T07:19:07.450Z,15.27
2018-04-11T07:21:35.818Z,15.31
2018-04-11T07:24:04.203Z,15.41
2018-04-11T07:26:32.520Z,15.55
2018-04-11T07:29:00.854Z,15.64
2018-04-11T07:31:29.266Z,15.73
2018-04-11T07:33:57.646Z,15.86
2018-04-11T07:36:25.980Z,15.98
2018-04-11T07:38:54.361Z,16.07
2018-04-11T07:41:22.721Z,16.03
2018-04-11T07:43:51.057Z,16.05
2018-04-11T07:46:19.405Z,15.93
2018-04-11T07:48:47.740Z,15.87
2018-04-11T07:51:16.119Z,15.95
2018-04-11T07:53:45.216Z,16.10
2018-04-11T07:56:13.588Z,16.17
2018-04-11T07:58:42.670Z,16.16
2018-04-11T08:01:11.048Z,16.39
2018-04-11T08:03:39.401Z,16.37
2018-04-11T08:06:07.780Z,16.58
2018-04-11T08:08:36.907Z,16.59
2018-04-11T08:11:05.238Z,16.48
2018-04-11T08:13:33.608Z,16.48
2018-04-11T08:16:01.961Z,16.73
2018-04-11T08:18:30.337Z,17.00
2018-04-11T08:20:58.712Z,17.06
2018-04-11T08:23:30.445Z,17.09
2018-04-11T08:25:58.809Z,17.33
2018-04-11T08:28:27.128Z,17.43
2018-04-11T08:30:55.513Z,17.54
2018-04-11T08:33:23.895Z,17.20
2018-04-11T08:35:52.226Z,16.92
2018-04-11T08:38:20.596Z,16.95
2018-04-11T08:40:48.993Z,16.86
2018-04-11T08:43:17.340Z,16.88
2018-04-11T08:45:45.668Z,16.84
2018-04-11T08:48:14.821Z,16.93
2018-04-11T08:50:43.191Z,17.09
2018-04-11T08:53:11.534Z,17.22
2018-04-11T08:55:39.904Z,17.22
2018-04-11T08:58:08.233Z,17.36
2018-04-11T09:00:36.608Z,17.47
2018-04-11T09:03:04.977Z,17.67
2018-04-11T09:05:33.383Z,17.79
2018-04-11T09:08:01.758Z,17.63
2018-04-11T09:10:30.132Z,17.68
2018-04-11T09:12:58.453Z,17.95
2018-04-11T09:15:26.958Z,18.12
2018-04-11T09:17:55.284Z,18.35
2018-04-11T09:20:24.381Z,18.54
2018-04-11T09:22:52.753Z,18.63
2018-04-11T09:25:21.075Z,18.78
2018-04-11T09:27:49.413Z,18.27
2018-04-11T09:30:18.888Z,18.33
2018-04-11T09:32:48.038Z,18.34
2018-04-11T09:35:16.523Z,18.51
2018-04-11T09:37:45.948Z,18.88
2018-04-11T09:40:14.793Z,19.17
2018-04-11T09:42:43.977Z,19.20
2018-04-11T09:45:12.588Z,20.00
2018-04-11T09:47:41.335Z,20.63
2018-04-11T09:50:10.300Z,19.89
2018-04-11T09:52:38.685Z,19.94
2018-04-11T09:55:07.421Z,20.03
2018-04-11T09:57:35.884Z,20.12
2018-04-11T10:00:04.217Z,19.67
2018-04-11T10:02:37.321Z,19.52
2018-04-11T10:05:06.118Z,19.87
2018-04-11T10:07:35.272Z,19.93
2018-04-11T10:10:04.649Z,20.40
2018-04-11T10:12:33.098Z,19.83
2018-04-11T10:15:01.593Z,19.41
2018-04-11T10:17:30.747Z,19.28
2018-04-11T10:19:59.529Z,19.40
2018-04-11T10:22:27.875Z,19.92
2018-04-11T10:24:57.016Z,20.07
2018-04-11T10:27:25.355Z,20.52
2018-04-11T10:29:53.737Z,20.25
2018-04-11T10:32:22.061Z,20.11
2018-04-11T10:34:50.422Z,20.14
2018-04-11T10:37:18.765Z,19.78
2018-04-11T10:39:47.159Z,20.15
2018-04-11T10:42:16.242Z,20.51
2018-04-11T10:44:45.369Z,20.36
2018-04-11T10:47:13.741Z,21.02
2018-04-11T10:49:42.111Z,20.77
2018-04-11T10:52:10.501Z,20.63
2018-04-11T10:54:38.829Z,20.46
2018-04-11T10:57:07.972Z,20.70
2018-04-11T10:59:36.344Z,21.01
2018-04-11T11:02:04.685Z,20.52
2018-04-11T11:04:33.064Z,20.71
2018-04-11T11:07:02.168Z,20.65
2018-04-11T11:09:31.287Z,20.56
2018-04-11T11:11:59.664Z,20.81
2018-04-11T11:14:28.025Z,20.79
2018-04-11T11:16:56.398Z,20.55
2018-04-11T11:19:25.525Z,20.64
2018-04-11T11:21:53.899Z,20.51
2018-04-11T11:24:22.231Z,20.62
2018-04-11T11:26:51.381Z,20.34
2018-04-11T11:29:19.721Z,20.32
2018-04-11T11:31:48.823Z,20.43
2018-04-11T11:34:17.216Z,20.70
2018-04-11T11:36:46.373Z,20.38
2018-04-11T11:39:14.762Z,20.45
2018-04-11T11:41:43.896Z,20.27
2018-04-11T11:44:12.270Z,20.53
2018-04-11T11:46:42.397Z,21.01
2018-04-11T11:49:10.800Z,21.13
2018-04-11T11:51:39.156Z,21.27
2018-04-11T11:54:08.267Z,21.31
2018-04-11T11:56:36.667Z,21.23
2018-04-11T11:59:05.067Z,21.30
2018-04-11T12:01:34.192Z,20.85
2018-04-11T12:04:02.545Z,20.73
2018-04-11T12:06:30.947Z,20.95
2018-04-11T12:08:59.281Z,21.25
2018-04-11T12:11:27.677Z,21.46
2018-04-11T12:13:56.829Z,21.74
2018-04-11T12:16:25.221Z,21.40
2018-04-11T12:18:53.612Z,21.44
2018-04-11T12:21:21.971Z,21.45
2018-04-11T12:23:50.303Z,21.87
2018-04-11T12:26:18.686Z,21.78
2018-04-11T12:28:47.012Z,21.39
2018-04-11T12:31:15.356Z,21.23
2018-04-11T12:33:43.740Z,21.56
2018-04-11T12:36:12.079Z,21.91
2018-04-11T12:38:41.225Z,21.93
2018-04-11T12:41:09.578Z,21.31
2018-04-11T12:43:37.966Z,22.12
2018-04-11T12:46:06.356Z,22.16
2018-04-11T12:48:34.745Z,22.63
2018-04-11T12:51:03.204Z,22.74
2018-04-11T12:53:31.576Z,22.71
2018-04-11T12:55:59.980Z,23.48
2018-04-11T12:58:28.371Z,23.29
2018-04-11T13:00:56.764Z,22.16
2018-04-11T13:03:25.120Z,22.49
2018-04-11T13:05:53.523Z,22.18
2018-04-11T13:08:22.683Z,21.58
2018-04-11T13:10:51.038Z,21.21
2018-04-11T13:13:19.362Z,21.81
2018-04-11T13:15:47.780Z,22.03
2018-04-11T13:18:16.177Z,21.96
2018-04-11T13:20:44.556Z,21.74
2018-04-11T13:23:12.932Z,21.87
2018-04-11T13:25:41.322Z,21.99
2018-04-11T13:28:09.655Z,22.02
2018-04-11T13:30:38.787Z,22.02
2018-04-11T13:33:07.143Z,21.04
2018-04-11T13:35:35.525Z,20.89
2018-04-11T13:38:03.876Z,21.26
2018-04-11T13:40:33.634Z,21.37
2018-04-11T13:43:02.425Z,20.96
2018-04-11T13:45:30.783Z,21.09
2018-04-11T13:47:59.238Z,21.00
2018-04-11T13:50:28.352Z,21.03
2018-04-11T13:52:56.760Z,21.16
2018-04-11T13:55:25.114Z,21.25
2018-04-11T13:57:53.521Z,21.17
2018-04-11T14:00:21.916Z,21.18
2018-04-11T14:02:50.295Z,20.93
2018-04-11T14:05:18.666Z,20.92
2018-04-11T14:07:47.064Z,20.99
2018-04-11T14:10:15.431Z,21.11
2018-04-11T14:12:43.813Z,21.16
2018-04-11T14:15:12.177Z,21.09
2018-04-11T14:17:40.551Z,20.95
2018-04-11T14:20:08.894Z,20.89
2018-04-11T14:22:37.293Z,21.23
2018-04-11T14:25:05.633Z,21.43
2018-04-11T14:27:34.049Z,21.40
2018-04-11T14:30:02.439Z,21.55
2018-04-11T14:32:30.817Z,21.27
2018-04-11T14:34:59.167Z,21.52
2018-04-11T14:37:27.541Z,21.29
2018-04-11T14:39:55.900Z,21.48
2018-04-11T14:42:25.060Z,21.37
2018-04-11T14:44:53.468Z,21.47
2018-04-11T14:47:22.700Z,21.58
2018-04-11T14:49:51.085Z,21.28
2018-04-11T14:52:19.429Z,21.51
2018-04-11T14:54:47.919Z,21.68
2018-04-11T14:57:16.651Z,21.57
2018-04-11T14:59:45.009Z,21.05
2018-04-11T15:02:13.382Z,20.79
2018-04-11T15:04:44.622Z,20.62
2018-04-11T15:07:13.333Z,20.81
2018-04-11T15:09:41.796Z,20.83
2018-04-11T15:12:10.170Z,21.01
2018-04-11T15:14:38.663Z,21.43
2018-04-11T15:17:07.319Z,21.26
2018-04-11T15:19:35.748Z,21.64
2018-04-11T15:22:04.607Z,21.13
2018-04-11T15:24:34.172Z,21.11
2018-04-11T15:27:04.332Z,21.49
2018-04-11T15:29:32.683Z,21.08
2018-04-11T15:32:01.918Z,21.69
2018-04-11T15:34:30.285Z,21.76
2018-04-11T15:36:58.653Z,21.23
2018-04-11T15:39:27.127Z,21.54
2018-04-11T15:41:55.555Z,21.90
2018-04-11T15:44:25.390Z,20.94
2018-04-11T15:46:53.796Z,20.16
2018-04-11T15:49:22.239Z,19.98
2018-04-11T15:51:50.748Z,20.01
2018-04-11T15:54:20.649Z,19.97
2018-04-11T15:56:50.923Z,20.16
2018-04-11T15:59:19.498Z,19.88
2018-04-11T16:01:47.921Z,19.87
2018-04-11T16:04:16.611Z,19.61
2018-04-11T16:06:45.055Z,19.48
2018-04-11T16:09:13.833Z,19.51
2018-04-11T16:11:42.296Z,19.39
2018-04-11T16:14:10.791Z,19.25
2018-04-11T16:16:40.674Z,19.29
2018-04-11T16:19:09.141Z,19.25
2018-04-11T16:21:38.308Z,19.23
2018-04-11T16:24:06.695Z,19.22
2018-04-11T16:26:35.135Z,19.14
2018-04-11T16:29:03.608Z,19.20
2018-04-11T16:31:33.525Z,19.12
2018-04-11T16:34:02.030Z,19.00
2018-04-11T16:36:30.469Z,18.95
2018-04-11T16:38:59.736Z,18.95
2018-04-11T16:41:30.542Z,18.86
2018-04-11T16:44:00.139Z,18.71
2018-04-11T16:46:29.343Z,18.63
2018-04-11T16:48:57.776Z,18.65
2018-04-11T16:51:28.770Z,18.55
2018-04-11T16:53:57.137Z,18.51
2018-04-11T16:56:30.580Z,18.45
2018-04-11T16:59:00.349Z,18.35
2018-04-11T17:01:28.986Z,18.34
2018-04-11T17:04:05.322Z,18.27
2018-04-11T17:09:09.156Z,18.15
2018-04-11T17:11:37.973Z,18.08
2018-04-11T17:14:07.207Z,18.03
2018-04-11T17:16:35.629Z,17.97
2018-04-11T17:19:04.128Z,17.87
2018-04-11T17:21:50.502Z,17.78
2018-04-11T17:24:36.548Z,17.67
2018-04-11T17:27:22.933Z,17.60
2018-04-11T17:30:09.026Z,17.51
2018-04-11T17:32:38.572Z,17.41
2018-04-11T17:35:07.262Z,17.30
2018-04-11T17:37:36.861Z,17.24
2018-04-11T17:40:10.211Z,17.13
2018-04-11T17:42:38.793Z,17.14
2018-04-11T17:45:08.428Z,17.08
2018-04-11T17:47:39.982Z,16.89
2018-04-11T17:50:09.408Z,16.83
2018-04-11T17:52:37.761Z,16.75
2018-04-11T17:55:06.380Z,16.63
2018-04-11T17:57:34.725Z,16.58
2018-04-11T18:00:03.124Z,16.43
2018-04-11T18:02:31.497Z,16.28
2018-04-11T18:04:59.895Z,16.28
2018-04-11T18:07:28.258Z,16.18
2018-04-11T18:09:56.623Z,16.23
2018-04-11T18:12:25.000Z,16.10
2018-04-11T18:14:53.393Z,16.10
2018-04-11T18:17:21.745Z,16.01
2018-04-11T18:19:50.119Z,16.04
2018-04-11T18:22:18.783Z,15.87
2018-04-11T18:24:47.932Z,15.83
2018-04-11T18:27:16.653Z,15.90
2018-04-11T18:29:45.749Z,15.75
2018-04-11T18:32:14.201Z,15.70
2018-04-11T18:34:44.062Z,15.60
2018-04-11T18:37:12.458Z,15.80
2018-04-11T18:39:41.694Z,15.72
2018-04-11T18:42:10.045Z,15.56
2018-04-11T18:44:39.112Z,15.70
2018-04-11T18:47:07.444Z,15.67
2018-04-11T18:49:35.932Z,15.45
2018-04-11T18:52:04.313Z,15.59
2018-04-11T18:54:32.676Z,15.65
2018-04-11T18:57:01.041Z,15.53
2018-04-11T18:59:29.403Z,15.55
2018-04-11T19:01:57.757Z,15.45
2018-04-11T19:04:26.117Z,15.53
2018-04-11T19:06:55.325Z,15.37
2018-04-11T19:09:24.446Z,15.33
2018-04-11T19:11:52.840Z,15.14
2018-04-11T19:14:22.118Z,15.12
2018-04-11T19:16:50.463Z,15.18
2018-04-11T19:19:20.871Z,15.08
2018-04-11T19:21:49.217Z,15.03
2018-04-11T19:24:17.589Z,14.96
2018-04-11T19:26:46.734Z,14.93
2018-04-11T19:29:16.231Z,15.03
2018-04-11T19:31:44.660Z,15.03
2018-04-11T19:34:12.989Z,14.99
2018-04-11T19:36:41.353Z,14.94
2018-04-11T19:39:09.707Z,14.86
2018-04-11T19:41:38.113Z,14.80
2018-04-11T19:44:06.465Z,14.75
2018-04-11T19:46:35.590Z,14.75
2018-04-11T19:49:03.949Z,14.65
2018-04-11T19:51:32.729Z,14.66
2018-04-11T19:54:01.455Z,14.59
2018-04-11T19:56:31.449Z,14.64
2018-04-11T19:58:59.813Z,14.43
2018-04-11T20:01:28.196Z,14.52
2018-04-11T20:03:56.616Z,14.56
2018-04-11T20:06:24.879Z,14.49
2018-04-11T20:08:53.249Z,14.51
2018-04-11T20:11:21.593Z,14.49
2018-04-11T20:13:49.972Z,14.49
2018-04-11T20:16:18.821Z,14.43
2018-04-11T20:18:47.957Z,14.37
2018-04-11T20:21:16.294Z,14.43
2018-04-11T20:23:45.433Z,14.25
2018-04-11T20:26:13.796Z,14.32
2018-04-11T20:28:42.134Z,14.31
2018-04-11T20:31:11.259Z,14.32
2018-04-11T20:33:39.684Z,14.28
2018-04-11T20:36:08.019Z,14.23
2018-04-11T20:38:36.383Z,14.16
2018-04-11T20:41:05.470Z,14.24
2018-04-11T20:43:34.608Z,14.13
2018-04-11T20:46:02.949Z,14.18
2018-04-11T20:48:32.074Z,14.08
2018-04-11T20:51:00.460Z,14.13
2018-04-11T20:53:28.812Z,14.06
2018-04-11T20:55:57.174Z,14.12
2018-04-11T20:58:26.317Z,14.14
2018-04-11T21:00:54.686Z,14.11
2018-04-11T21:03:23.064Z,13.91
2018-04-11T21:05:51.479Z,13.92
2018-04-11T21:08:19.811Z,13.84
2018-04-11T21:10:48.924Z,13.88
2018-04-11T21:13:17.304Z,13.73
2018-04-11T21:15:45.634Z,13.65
2018-04-11T21:18:14.780Z,13.69
2018-04-11T21:20:43.161Z,13.69
2018-04-11T21:23:11.526Z,13.63
2018-04-11T21:25:39.877Z,13.74
2018-04-11T21:28:08.219Z,13.79
2018-04-11T21:30:36.594Z,13.75
2018-04-11T21:33:04.971Z,13.58
2018-04-11T21:35:33.292Z,13.60
2018-04-11T21:38:01.658Z,13.61
2018-04-11T21:40:30.044Z,13.50
2018-04-11T21:42:58.422Z,13.50
2018-04-11T21:45:26.762Z,13.56
2018-04-11T21:47:55.144Z,13.48
2018-04-11T21:50:23.474Z,13.47
2018-04-11T21:52:51.787Z,13.49
2018-04-11T21:55:20.145Z,13.44
2018-04-11T21:57:48.492Z,13.39
2018-04-11T22:00:16.854Z,13.43
2018-04-11T22:02:45.947Z,13.44
2018-04-11T22:05:15.185Z,13.34
2018-04-11T22:07:43.498Z,13.37
2018-04-11T22:10:11.832Z,13.34
2018-04-11T22:12:40.196Z,13.34
2018-04-11T22:15:08.542Z,13.19
2018-04-11T22:17:36.909Z,13.09
2018-04-11T22:20:05.232Z,13.11
2018-04-11T22:22:33.574Z,13.16
2018-04-11T22:25:01.904Z,13.13
2018-04-11T22:27:30.277Z,13.13
2018-04-11T22:29:58.624Z,13.08
2018-04-11T22:32:27.756Z,13.11
2018-04-11T22:34:56.084Z,13.09
2018-04-11T22:37:25.240Z,13.00
2018-04-11T22:39:53.574Z,12.99
2018-04-11T22:42:22.717Z,13.02
2018-04-11T22:44:51.063Z,12.95
2018-04-11T22:47:19.426Z,12.92
2018-04-11T22:49:48.524Z,12.93
2018-04-11T22:52:16.912Z,12.99
2018-04-11T22:54:45.240Z,12.95
2018-04-11T22:57:13.604Z,12.89
2018-04-11T22:59:41.974Z,12.82
2018-04-11T23:02:10.335Z,12.62
2018-04-11T23:04:38.712Z,12.64
2018-04-11T23:07:07.819Z,12.70
2018-04-11T23:09:36.191Z,12.74
2018-04-11T23:12:04.519Z,12.73
2018-04-11T23:14:32.867Z,12.77
2018-04-11T23:17:01.195Z,12.84
2018-04-11T23:19:29.919Z,12.75
2018-04-11T23:21:59.055Z,12.67
2018-04-11T23:24:27.402Z,12.63
2018-04-11T23:26:55.726Z,12.66
2018-04-11T23:29:24.831Z,12.60
2018-04-11T23:31:53.203Z,12.54
2018-04-11T23:34:23.027Z,12.61
2018-04-11T23:36:51.407Z,12.63
2018-04-11T23:39:19.721Z,12.51
2018-04-11T23:41:48.099Z,12.50
2018-04-11T23:44:16.441Z,12.48
2018-04-11T23:46:44.798Z,12.54
2018-04-11T23:49:13.935Z,12.54
2018-04-11T23:51:42.311Z,12.37
2018-04-11T23:54:10.698Z,12.47
2018-04-11T23:56:39.022Z,12.39
2018-04-11T23:59:08.145Z,12.40
